Terminal Aerodrome Forecast
Issued by NWS

Home | Current Version | Previous Version | Text Only | Print | Product List | Glossary On
Versions: 1 2 3 4 5 6 7 8 9 10 11 12 13 14 15 16 17 18 19 20 21 22 23 24 25 26 27 28 29
220
FTUS46 KOTX 111136
TAFMWH
TAF
KMWH 111136Z 1112/1212 36005KT 6SM BR FEW002 BKN200
      TEMPO 1112/1116 3SM BR
     FM112100 03005KT P6SM VCSH SCT030 OVC060
     FM120100 35007KT P6SM -RA SCT015 OVC040
     FM120400 VRB03KT 6SM -RA BR BKN015 OVC025=

USA.gov is the U.S. government's official web portal to all federal, state and local government web resources and services.